• Join FlightAware (Why Join?)
  • Login
  • US Flag 
01:29AM EDT


 

Airport Tracker/Info


-or-


 

Live Flight TrackerFlight Track Log ✈ N789EX ✈ 09-Jan-2014 ✈ KMWH - KBFI

Flight Track Log - Related Links

Times and Time Zones

All times are in EST time to prevent confusion due to time zone crossing. See the N789EX flight status page for this flight to view local times or setup timezone preferences in your user account.

Time Position Orientation Groundspeed Altitude Reporting Facility
EST Latitude Longitude Course Direction KTS MPH feet Rate Location/Type
04:22PM 47.3053 -119.2492 26° Northeast 274 315 5,600  Level Seattle Center
04:23PM 47.3214 -119.1328 78° East 287 330 9,800 3,540 Climbing Seattle Center
04:24PM 47.3397 -119.0092 78° East 307 353 12,800 2,940 Climbing Seattle Center
04:25PM 47.3656 -118.8817 73° East 329 379 15,800 2,700 Climbing Seattle Center
04:26PM 47.4072 -118.7589 63° Northeast 341 392 18,300 2,400 Climbing Seattle Center
04:27PM 47.4511 -118.6308 63° Northeast 348 400 20,800 1,800 Climbing Seattle Center
04:28PM 47.4986 -118.4931 63° Northeast 368 423 22,000 540 Climbing Seattle Center
04:29PM 47.5175 -118.3061 81° East 464 534 22,000  Level Seattle Center
04:30PM 47.5300 -118.0947 85° East 513 590 22,000  Level Seattle Center
04:31PM 47.5739 -117.8964 72° East 528 608 22,000 -300 Level Seattle Center
04:32PM 47.6122 -117.7244 72° East 520 598 21,400  Descending Seattle Center
04:33PM 47.6714 -117.8500 305° West 421 484 22,000 240 Climbing Seattle Center
04:34PM 47.7139 -118.0575 287° West 438 504 22,000 -60 Level Seattle Center
04:35PM 47.6650 -118.2286 247° West 477 549 21,900  Descending Seattle Center
04:36PM 47.6514 -118.4133 264° West 457 526 22,000 60 Climbing Seattle Center
04:37PM 47.6786 -118.5889 283° West 441 507 22,100  Climbing Seattle Center
04:38PM 47.7019 -118.7511 282° West 411 473 22,000 -60 Descending Seattle Center
04:39PM 47.7178 -118.9011 279° West 379 436 22,000  Level Seattle Center
04:41PM 47.7306 -119.0525 277° West 371 427 22,000  Level Seattle Center
04:47PM 47.7911 -120.0440 277° West 372 428 22,000  Level FlightAware ADS-B
04:47PM 47.7957 -120.1200 275° West 369 425 22,000  Level FlightAware ADS-B
04:48PM 47.8031 -120.2460 275° West 367 422 22,000  Level FlightAware ADS-B
04:49PM 47.8075 -120.3210 275° West 362 417 22,000  Level FlightAware ADS-B
04:49PM 47.8119 -120.3960 275° West 364 419 22,000  Level FlightAware ADS-B
04:50PM 47.8161 -120.4720 275° West 366 421 22,000  Level FlightAware ADS-B
04:50PM 47.8203 -120.5470 275° West 364 419 22,000  Level FlightAware ADS-B
04:51PM 47.8244 -120.6230 275° West 364 419 22,000  Level FlightAware ADS-B
04:51PM 47.8286 -120.6980 275° West 363 418 22,000  Level FlightAware ADS-B
04:52PM 47.8326 -120.7730 275° West 361 415 22,000 -840 Level FlightAware ADS-B
04:52PM 47.8366 -120.8480 275° West 360 414 21,200 -2,220 Descending FlightAware ADS-B
04:53PM 47.8407 -120.9230 275° West 359 413 19,800 -2,760 Descending FlightAware ADS-B
04:53PM 47.8444 -120.9970 274° West 357 411 18,400 -2,640 Descending FlightAware ADS-B
04:54PM 47.8481 -121.0700 274° West 352 405 17,200 -2,400 Descending FlightAware ADS-B
04:54PM 47.8518 -121.1430 274° West 347 399 16,000 -2,220 Descending FlightAware ADS-B
04:55PM 47.8550 -121.2050 274° West 343 395 15,100 -2,040 Descending FlightAware ADS-B
04:55PM 47.8593 -121.2750 275° West 339 390 14,100 -2,040 Descending FlightAware ADS-B
04:56PM 47.8641 -121.3440 276° West 332 382 13,100 -1,920 Descending FlightAware ADS-B
04:56PM 47.8686 -121.4130 276° West 326 375 12,200 -1,320 Descending FlightAware ADS-B
04:57PM 47.8727 -121.4790 275° West 307 353 11,800 -600 Descending FlightAware ADS-B
04:57PM 47.8765 -121.5410 275° West 284 327 11,600 -540 Descending FlightAware ADS-B
04:58PM 47.8800 -121.5980 275° West 265 305 11,300 -540 Descending FlightAware ADS-B
04:58PM 47.8833 -121.6530 275° West 254 292 11,100 -420 Descending FlightAware ADS-B
04:58PM 47.8844 -121.6730 275° West 249 287 11,000 -360 Descending FlightAware ADS-B
04:58PM 47.8841 -121.6830 267° West 246 283 11,000 -600 Level FlightAware ADS-B
04:59PM 47.8834 -121.6900 262° West 245 282 10,900 -780 Descending FlightAware ADS-B
04:59PM 47.8823 -121.6960 255° West 244 281 10,900 -900 Level FlightAware ADS-B
04:59PM 47.8811 -121.7010 250° West 244 281 10,800 -780 Descending FlightAware ADS-B
04:59PM 47.8788 -121.7080 244° Southwest 243 280 10,800 -600 Level FlightAware ADS-B
04:59PM 47.8758 -121.7160 241° Southwest 244 281 10,700 -1,200 Descending FlightAware ADS-B
04:59PM 47.8721 -121.7230 232° Southwest 244 281 10,600 -600 Descending FlightAware ADS-B
04:59PM 47.8682 -121.7290 226° Southwest 246 283 10,600 -720 Level FlightAware ADS-B
05:00PM 47.8426 -121.7630 222° Southwest 244 281 10,200 -960 Descending FlightAware ADS-B
05:00PM 47.8309 -121.7790 223° Southwest 246 283 9,900 -1,500 Descending FlightAware ADS-B
05:00PM 47.8182 -121.7960 222° Southwest 249 287 9,500 -1,440 Descending FlightAware ADS-B
05:00PM 47.8049 -121.8140 222° Southwest 249 287 9,200 -1,020 Descending FlightAware ADS-B
05:00PM 47.7919 -121.8320 223° Southwest 245 282 9,000 -1,200 Descending FlightAware ADS-B
05:01PM 47.7794 -121.8490 222° Southwest 238 274 8,600 -1,380 Descending FlightAware ADS-B
05:01PM 47.7672 -121.8650 221° Southwest 229 264 8,300 -1,440 Descending FlightAware ADS-B
05:01PM 47.7554 -121.8810 222° Southwest 231 266 7,900 -1,440 Descending FlightAware ADS-B
05:02PM 47.7439 -121.8970 223° Southwest 228 262 7,600 -1,200 Descending FlightAware ADS-B
05:02PM 47.7319 -121.9130 222° Southwest 227 261 7,300 -1,200 Descending FlightAware ADS-B
05:02PM 47.7201 -121.9290 222° Southwest 226 260 7,000 -1,200 Descending FlightAware ADS-B
05:02PM 47.7089 -121.9440 222° Southwest 224 258 6,700 -1,200 Descending FlightAware ADS-B
05:03PM 47.6971 -121.9600 222° Southwest 222 255 6,400 -1,200 Descending FlightAware ADS-B
05:03PM 47.6857 -121.9750 222° Southwest 220 253 6,100 -1,080 Descending FlightAware ADS-B
05:03PM 47.6801 -121.9830 224° Southwest 220 253 6,000 -1,140 Descending FlightAware ADS-B
05:03PM 47.6771 -121.9870 222° Southwest 221 254 5,900 -1,500 Descending FlightAware ADS-B
05:03PM 47.6746 -121.9910 227° Southwest 221 254 5,800 -900 Descending FlightAware ADS-B
05:03PM 47.6728 -121.9950 236° Southwest 221 254 5,800 -1,020 Level FlightAware ADS-B
05:03PM 47.6713 -121.9990 241° Southwest 222 255 5,700 -1,740 Descending FlightAware ADS-B
05:03PM 47.6700 -122.0050 252° West 223 257 5,600 -1,140 Descending FlightAware ADS-B
05:03PM 47.6693 -122.0160 265° West 230 265 5,500 -1,140 Descending FlightAware ADS-B
05:03PM 47.6700 -122.0220 280° West 235 270 5,400 -1,380 Descending FlightAware ADS-B
05:03PM 47.6717 -122.0290 290° West 243 280 5,300 -1,500 Descending FlightAware ADS-B
05:04PM 47.6734 -122.0340 297° West 247 284 5,200 -1,380 Descending FlightAware ADS-B
05:04PM 47.6779 -122.0420 310° West 256 295 5,100 -1,680 Descending FlightAware ADS-B
05:04PM 47.6834 -122.0490 319° Northwest 264 304 4,900 -1,200 Descending FlightAware ADS-B
05:04PM 47.6992 -122.0660 324° Northwest 266 306 4,700 -600 Descending FlightAware ADS-B
05:04PM 47.7146 -122.0820 325° Northwest 265 305 4,600 -420 Descending FlightAware ADS-B
05:04PM 47.7292 -122.0980 324° Northwest 265 305 4,500 -600 Descending FlightAware ADS-B
05:05PM 47.7343 -122.1040 322° Northwest 264 304 4,400 -1,500 Descending FlightAware ADS-B
05:05PM 47.7371 -122.1070 324° Northwest 263 303 4,300 -1,380 Descending FlightAware ADS-B
05:05PM 47.7419 -122.1150 312° West 258 297 4,200 -600 Descending FlightAware ADS-B
05:05PM 47.7446 -122.1220 300° West 251 289 4,200 -780 Level FlightAware ADS-B
05:05PM 47.7464 -122.1280 294° West 248 285 4,100 -1,500 Descending FlightAware ADS-B
05:05PM 47.7478 -122.1340 289° West 245 282 4,000 -1,200 Descending FlightAware ADS-B
05:05PM 47.7512 -122.1510 287° West 243 280 3,800 -1,200 Descending FlightAware ADS-B
05:05PM 47.7552 -122.1740 285° West 243 280 3,500 -1,200 Descending FlightAware ADS-B
05:06PM 47.7600 -122.2000 285° West 241 277 3,200 -960 Descending FlightAware ADS-B
05:06PM 47.7649 -122.2260 286° West 236 272 3,000 -720 Descending FlightAware ADS-B
05:06PM 47.7728 -122.2670 286° West 221 254 2,700 -900 Descending FlightAware ADS-B
05:07PM 47.7883 -122.3040 302° West 221 254 2,200 -120 Descending FlightAware ADS-B
05:11PM 47.8118 -122.5110 280° West 140 161 2,200  Level FlightAware ADS-B
05:11PM 47.7977 -122.5090 175° South 140 161 2,200  Level FlightAware ADS-B
05:11PM 47.7822 -122.5060 173° South 139 160 2,200  Level FlightAware ADS-B
05:12PM 47.7798 -122.5060 180° South 139 160 2,200  Level FlightAware ADS-B
05:12PM 47.7778 -122.5050 161° South 140 161 2,200  Level FlightAware ADS-B
05:12PM 47.7755 -122.5030 150° Southeast 144 166 2,200  Level FlightAware ADS-B
05:12PM 47.7739 -122.5010 140° Southeast 146 168 2,200 540 Level FlightAware ADS-B
05:12PM 47.7696 -122.4960 142° Southeast 145 167 2,300 540 Climbing FlightAware ADS-B
05:12PM 47.7679 -122.4940 142° Southeast 143 165 2,300  Level FlightAware ADS-B
05:12PM 47.7659 -122.4930 161° South 139 160 2,300 -180 Level FlightAware ADS-B
05:12PM 47.7456 -122.4850 165° South 139 160 2,200 -180 Descending FlightAware ADS-B
05:13PM 47.7415 -122.4830 162° South 143 165 2,200  Level FlightAware ADS-B
05:13PM 47.7220 -122.4650 148° Southeast 148 170 2,200  Level FlightAware ADS-B
05:14PM 47.7079 -122.4530 150° Southeast 145 167 2,200  Level FlightAware ADS-B
05:14PM 47.6967 -122.4440 152° Southeast 144 166 2,200  Level FlightAware ADS-B
05:14PM 47.6815 -122.4310 150° Southeast 143 165 2,200  Level FlightAware ADS-B
05:15PM 47.6714 -122.4220 149° Southeast 144 166 2,200  Level FlightAware ADS-B
05:15PM 47.6638 -122.4160 152° Southeast 138 159 2,200  Level FlightAware ADS-B
05:15PM 47.6549 -122.4090 152° Southeast 140 161 2,200  Level FlightAware ADS-B
05:15PM 47.6470 -122.4020 149° Southeast 143 165 2,200  Level FlightAware ADS-B
05:16PM 47.6411 -122.3960 146° Southeast 146 168 2,200  Level FlightAware ADS-B
05:16PM 47.6360 -122.3920 152° Southeast 145 167 2,200  Level FlightAware ADS-B
05:16PM 47.6305 -122.3870 149° Southeast 148 170 2,200 -480 Level FlightAware ADS-B
05:16PM 47.6208 -122.3790 151° Southeast 148 170 2,000 -720 Descending FlightAware ADS-B
05:16PM 47.6106 -122.3710 152° Southeast 146 168 1,800 -780 Descending FlightAware ADS-B
05:17PM 47.6017 -122.3630 149° Southeast 142 163 1,600 -960 Descending FlightAware ADS-B
05:18PM 47.5628 -122.3317 149° Southeast 144 166 500 -900 Descending Seattle Center
05:18PM 47.5542 -122.3236 148° Southeast 144 166 400 -420 Descending Seattle Center